createdAt,value
2023-04-28T00:01:06.736Z,5.32
2023-04-28T00:04:09.741Z,6.55
2023-04-28T00:07:12.680Z,6.82
2023-04-28T00:10:16.904Z,6.47
2023-04-28T00:13:19.963Z,4.90
2023-04-28T00:16:23.127Z,6.72
2023-04-28T00:19:25.842Z,6.35
2023-04-28T00:22:28.625Z,6.80
2023-04-28T00:25:33.182Z,4.32
2023-04-28T00:28:35.857Z,5.18
2023-04-28T00:31:38.638Z,4.30
2023-04-28T00:34:41.472Z,4.38
2023-04-28T00:37:44.243Z,3.75
2023-04-28T00:40:48.321Z,5.15
2023-04-28T00:43:52.246Z,5.00
2023-04-28T00:46:55.341Z,4.15
2023-04-28T00:49:58.077Z,3.25
2023-04-28T00:53:01.586Z,3.45
2023-04-28T00:56:06.664Z,3.40
2023-04-28T00:59:09.362Z,4.20
2023-04-28T01:02:17.257Z,4.88
2023-04-28T01:05:20.585Z,3.75
2023-04-28T01:08:24.948Z,3.70
2023-04-28T01:11:28.999Z,3.97
2023-04-28T01:14:32.227Z,5.05
2023-04-28T01:17:35.062Z,5.07
2023-04-28T01:20:37.878Z,3.08
2023-04-28T01:23:40.729Z,4.97
2023-04-28T01:26:45.242Z,3.75
2023-04-28T01:29:47.902Z,3.88
2023-04-28T01:32:50.834Z,3.72
2023-04-28T01:35:58.553Z,5.40
2023-04-28T01:39:01.480Z,3.33
2023-04-28T01:42:05.967Z,3.83
2023-04-28T01:45:09.960Z,5.43
2023-04-28T01:48:12.753Z,3.72
2023-04-28T01:51:15.547Z,3.67
2023-04-28T01:54:18.455Z,4.50
2023-04-28T01:57:22.765Z,4.78
2023-04-28T02:00:25.678Z,5.05
2023-04-28T02:03:29.041Z,4.38
2023-04-28T02:06:32.007Z,3.00
2023-04-28T02:09:34.739Z,4.88
2023-04-28T02:12:38.822Z,4.55
2023-04-28T02:15:42.137Z,5.70
2023-04-28T02:18:44.956Z,6.00
2023-04-28T02:21:47.617Z,3.80
2023-04-28T02:24:50.639Z,4.43
2023-04-28T02:27:54.758Z,4.47
2023-04-28T02:31:05.190Z,3.47
2023-04-28T02:34:08.038Z,5.25
2023-04-28T02:37:10.812Z,6.63
2023-04-28T02:40:14.368Z,5.97
2023-04-28T02:43:18.348Z,5.95
2023-04-28T02:46:21.101Z,4.28
2023-04-28T02:49:24.387Z,4.65
2023-04-28T02:52:27.116Z,4.70
2023-04-28T02:55:29.973Z,6.03
2023-04-28T02:58:34.126Z,4.35
2023-04-28T03:01:37.142Z,6.03
2023-04-28T03:04:40.114Z,4.40
2023-04-28T03:07:42.861Z,7.05
2023-04-28T03:10:45.707Z,3.80
2023-04-28T03:13:49.839Z,4.95
2023-04-28T03:16:52.539Z,4.50
2023-04-28T03:19:55.327Z,4.38
2023-04-28T03:22:58.173Z,3.50
2023-04-28T03:26:01.211Z,3.72
2023-04-28T03:29:05.249Z,3.28
2023-04-28T03:32:08.235Z,3.83
2023-04-28T03:35:11.327Z,6.13
2023-04-28T03:38:14.005Z,5.47
2023-04-28T03:41:16.763Z,5.65
2023-04-28T03:44:21.638Z,3.42
2023-04-28T03:47:24.309Z,5.35
2023-04-28T03:50:27.101Z,3.90
2023-04-28T03:53:30.238Z,4.82
2023-04-28T03:56:33.108Z,4.43
2023-04-28T03:59:37.156Z,3.60
2023-04-28T04:02:39.946Z,4.28
2023-04-28T04:05:43.108Z,5.57
2023-04-28T04:08:46.697Z,4.55
2023-04-28T04:11:49.329Z,3.90
2023-04-28T04:14:53.451Z,4.90
2023-04-28T04:17:56.485Z,5.82
2023-04-28T04:20:59.617Z,5.78
2023-04-28T04:24:02.492Z,4.88
2023-04-28T04:27:05.448Z,5.18
2023-04-28T04:30:10.818Z,6.28
2023-04-28T04:33:13.523Z,4.72
2023-04-28T04:36:16.967Z,4.38
2023-04-28T04:39:19.878Z,5.50
2023-04-28T04:42:25.027Z,5.43
2023-04-28T04:45:29.820Z,3.75
2023-04-28T04:48:32.454Z,4.85
2023-04-28T04:51:35.151Z,5.82
2023-04-28T04:54:37.813Z,5.85
2023-04-28T04:57:40.590Z,4.35
2023-04-28T05:00:44.749Z,6.18
2023-04-28T05:03:47.790Z,3.95
2023-04-28T05:06:50.747Z,4.32
2023-04-28T05:09:53.463Z,5.43
2023-04-28T05:12:56.173Z,4.43
2023-04-28T05:16:00.516Z,5.43
2023-04-28T05:19:03.418Z,7.32
2023-04-28T05:22:07.077Z,4.78
2023-04-28T05:25:10.595Z,6.05
2023-04-28T05:28:13.435Z,6.15
2023-04-28T05:31:17.641Z,4.35
2023-04-28T05:34:20.359Z,4.57
2023-04-28T05:37:23.424Z,9.20
2023-04-28T05:40:26.420Z,5.25
2023-04-28T05:43:29.346Z,4.40
2023-04-28T05:46:34.312Z,4.90
2023-04-28T05:49:37.996Z,5.72
2023-04-28T05:52:40.848Z,5.43
2023-04-28T05:55:43.683Z,3.38
2023-04-28T05:58:47.205Z,3.72
2023-04-28T06:01:51.815Z,3.03
2023-04-28T06:04:54.645Z,3.10
2023-04-28T06:07:57.841Z,4.50
2023-04-28T06:11:00.634Z,3.38
2023-04-28T06:14:03.357Z,2.97
2023-04-28T06:17:07.507Z,3.47
2023-04-28T06:20:13.704Z,3.63
2023-04-28T06:23:16.492Z,4.57
2023-04-28T06:26:19.289Z,2.22
2023-04-28T06:29:23.934Z,2.63
2023-04-28T06:32:28.043Z,3.05
2023-04-28T06:35:30.865Z,4.03
2023-04-28T06:38:33.657Z,5.00
2023-04-28T06:41:36.678Z,5.03
2023-04-28T06:44:39.367Z,4.40
2023-04-28T06:47:43.931Z,3.88
2023-04-28T06:50:46.974Z,2.85
2023-04-28T06:53:51.368Z,2.65
2023-04-28T06:56:54.186Z,4.72
2023-04-28T06:59:57.113Z,2.72
2023-04-28T07:03:01.534Z,3.00
2023-04-28T07:06:05.096Z,3.72
2023-04-28T07:09:07.747Z,3.15
2023-04-28T07:12:10.816Z,3.28
2023-04-28T07:15:13.590Z,3.03
2023-04-28T07:18:17.761Z,4.10
2023-04-28T07:21:21.761Z,3.15
2023-04-28T07:24:27.289Z,6.00
2023-04-28T07:27:30.207Z,2.67
2023-04-28T07:30:32.874Z,3.20
2023-04-28T07:33:36.948Z,2.55
2023-04-28T07:36:39.619Z,2.75
2023-04-28T07:39:42.439Z,3.17
2023-04-28T07:42:45.291Z,4.45
2023-04-28T07:45:49.558Z,3.17
2023-04-28T07:48:55.297Z,3.20
2023-04-28T07:51:58.153Z,3.30
2023-04-28T07:55:02.445Z,6.10
2023-04-28T07:58:06.492Z,3.50
2023-04-28T08:01:09.239Z,6.05
2023-04-28T08:04:13.831Z,7.50
2023-04-28T08:07:17.189Z,5.72
2023-04-28T08:10:19.906Z,10.65
2023-04-28T08:13:22.610Z,5.35
2023-04-28T08:16:25.612Z,7.20
2023-04-28T08:19:29.818Z,6.60
2023-04-28T08:22:32.560Z,3.90
2023-04-28T08:25:35.303Z,4.97
2023-04-28T08:28:38.088Z,6.13
2023-04-28T08:31:40.812Z,5.32
2023-04-28T08:34:45.010Z,6.72
2023-04-28T08:37:49.538Z,6.40
2023-04-28T08:40:52.679Z,3.63
2023-04-28T08:43:55.512Z,4.80
2023-04-28T08:47:02.208Z,8.90
2023-04-28T08:50:08.591Z,7.88
2023-04-28T08:53:13.796Z,5.40
2023-04-28T08:56:18.302Z,6.90
2023-04-28T08:59:21.934Z,9.15
2023-04-28T09:02:24.865Z,6.95
2023-04-28T09:05:29.587Z,4.63
2023-04-28T09:08:32.340Z,4.25
2023-04-28T09:11:35.847Z,4.53
2023-04-28T09:14:40.262Z,3.80
2023-04-28T09:17:50.250Z,3.63
2023-04-28T09:21:04.265Z,6.18
2023-04-28T09:24:08.145Z,11.40
2023-04-28T09:27:12.183Z,4.05
2023-04-28T09:30:15.171Z,4.22
2023-04-28T09:33:17.954Z,6.57
2023-04-28T09:36:30.727Z,3.45
2023-04-28T09:39:33.651Z,4.63
2023-04-28T09:42:38.045Z,5.68
2023-04-28T09:45:42.421Z,3.08
2023-04-28T09:48:45.222Z,2.67
2023-04-28T09:51:50.289Z,3.38
2023-04-28T09:54:54.701Z,4.25
2023-04-28T09:58:00.536Z,4.03
2023-04-28T10:01:04.061Z,3.47
2023-04-28T10:04:08.222Z,2.50
2023-04-28T10:07:13.195Z,3.63
2023-04-28T10:10:17.031Z,2.33
2023-04-28T10:13:20.622Z,2.97
2023-04-28T10:16:24.657Z,4.30
2023-04-28T10:19:27.437Z,2.80
2023-04-28T10:22:48.979Z,2.40
2023-04-28T10:25:57.168Z,1.52
2023-04-28T10:29:00.344Z,0.98
2023-04-28T10:32:26.543Z,1.02
2023-04-28T10:35:42.919Z,1.02
2023-04-28T10:39:12.058Z,0.70
2023-04-28T10:42:53.170Z,0.90
2023-04-28T10:46:04.728Z,0.95
2023-04-28T10:49:08.403Z,0.60
2023-04-28T10:52:44.485Z,0.50
2023-04-28T10:56:07.043Z,0.70
2023-04-28T10:59:28.370Z,0.38
2023-04-28T11:02:46.149Z,1.85
2023-04-28T11:06:19.163Z,0.30
2023-04-28T11:09:49.930Z,0.60
2023-04-28T11:13:26.174Z,0.40
2023-04-28T11:16:31.779Z,0.30
2023-04-28T11:19:36.744Z,0.20
2023-04-28T11:22:40.018Z,0.40
2023-04-28T11:25:55.287Z,0.68
2023-04-28T11:28:58.718Z,0.85
2023-04-28T11:32:03.507Z,1.08
2023-04-28T11:35:09.785Z,0.57
2023-04-28T11:38:12.722Z,0.20
2023-04-28T11:41:15.581Z,0.43
2023-04-28T11:44:19.829Z,0.95
2023-04-28T11:47:34.942Z,0.30
2023-04-28T11:50:38.114Z,0.50
2023-04-28T11:53:44.394Z,0.45
2023-04-28T11:56:47.580Z,1.40
2023-04-28T11:59:51.380Z,0.52
2023-04-28T12:02:55.748Z,0.40
2023-04-28T12:05:59.006Z,0.30
2023-04-28T12:09:04.564Z,0.50
2023-04-28T12:12:09.014Z,1.50
2023-04-28T12:15:12.371Z,0.30
2023-04-28T12:18:19.469Z,1.70
2023-04-28T12:21:22.850Z,0.60
2023-04-28T12:24:26.866Z,0.52
2023-04-28T12:27:29.711Z,0.65
2023-04-28T12:30:34.407Z,0.40
2023-04-28T12:33:39.454Z,0.50
2023-04-28T12:36:42.212Z,2.08
2023-04-28T12:39:45.384Z,1.58
2023-04-28T12:42:48.562Z,0.98
2023-04-28T12:45:52.955Z,1.58
2023-04-28T12:48:57.213Z,0.55
2023-04-28T12:51:59.957Z,0.57
2023-04-28T12:55:02.729Z,0.68
2023-04-28T12:58:05.565Z,0.52
2023-04-28T13:01:08.440Z,0.30
2023-04-28T13:04:12.713Z,0.88
2023-04-28T13:07:17.878Z,0.55
2023-04-28T13:10:21.358Z,0.50
2023-04-28T13:13:24.079Z,0.77
2023-04-28T13:16:29.220Z,1.05
2023-04-28T13:19:34.605Z,0.50
2023-04-28T13:22:37.336Z,0.80
2023-04-28T13:25:40.225Z,0.47
2023-04-28T13:28:43.014Z,0.70
2023-04-28T13:31:46.291Z,0.68
2023-04-28T13:34:50.610Z,1.25
2023-04-28T13:38:01.507Z,0.60
2023-04-28T13:41:04.427Z,0.70
2023-04-28T13:44:07.124Z,0.50
2023-04-28T13:47:11.031Z,0.75
2023-04-28T13:50:15.164Z,2.25
2023-04-28T13:53:18.015Z,2.60
2023-04-28T13:56:21.277Z,0.75
2023-04-28T13:59:24.083Z,0.80
2023-04-28T14:02:27.410Z,0.85
2023-04-28T14:05:39.049Z,1.13
2023-04-28T14:08:51.376Z,3.13
2023-04-28T14:11:56.589Z,5.10
2023-04-28T14:14:59.671Z,2.58
2023-04-28T14:18:02.862Z,1.23
2023-04-28T14:21:08.192Z,1.92
2023-04-28T14:24:11.650Z,1.15
2023-04-28T14:27:15.193Z,0.80
2023-04-28T14:30:18.301Z,0.85
2023-04-28T14:33:21.171Z,2.35
2023-04-28T14:36:25.318Z,1.55
2023-04-28T14:39:27.938Z,1.20
2023-04-28T14:42:32.548Z,1.98
2023-04-28T14:45:37.195Z,2.83
2023-04-28T14:48:40.130Z,1.10
2023-04-28T14:51:44.218Z,1.25
2023-04-28T14:54:47.404Z,1.02
2023-04-28T14:57:50.323Z,1.55
2023-04-28T15:00:53.219Z,1.88
2023-04-28T15:03:56.154Z,0.85
2023-04-28T15:07:01.179Z,1.35
2023-04-28T15:10:03.945Z,0.90
2023-04-28T15:13:07.511Z,1.08
2023-04-28T15:16:10.355Z,1.75
2023-04-28T15:19:13.137Z,1.45
2023-04-28T15:22:17.282Z,0.90
2023-04-28T15:25:20.930Z,0.70
2023-04-28T15:28:23.629Z,0.50
2023-04-28T15:31:26.974Z,0.50
2023-04-28T15:34:29.726Z,1.38
2023-04-28T15:37:44.638Z,1.38
2023-04-28T15:40:47.378Z,0.45
2023-04-28T15:43:50.695Z,0.10
2023-04-28T15:46:53.686Z,0.20
2023-04-28T15:49:56.442Z,0.85
2023-04-28T15:53:00.594Z,0.52
2023-04-28T15:56:04.988Z,0.50
2023-04-28T15:59:08.500Z,0.43
2023-04-28T16:02:11.320Z,1.67
2023-04-28T16:05:14.529Z,0.40
2023-04-28T16:08:19.502Z,0.73
2023-04-28T16:11:22.312Z,0.20
2023-04-28T16:14:25.002Z,0.35
2023-04-28T16:17:29.010Z,0.68
2023-04-28T16:20:33.702Z,0.50
2023-04-28T16:23:37.841Z,0.40
2023-04-28T16:26:40.710Z,1.83
2023-04-28T16:29:43.811Z,2.17
2023-04-28T16:32:46.702Z,2.30
2023-04-28T16:35:55.693Z,1.55
2023-04-28T16:39:00.815Z,0.60
2023-04-28T16:42:05.297Z,0.47
2023-04-28T16:45:08.982Z,0.50
2023-04-28T16:48:11.688Z,0.65
2023-04-28T16:51:14.388Z,4.00
2023-04-28T16:54:18.637Z,0.45
2023-04-28T16:57:21.712Z,0.50
2023-04-28T17:00:24.799Z,0.98
2023-04-28T17:03:27.745Z,0.45
2023-04-28T17:06:32.332Z,0.85
2023-04-28T17:09:36.636Z,0.47
2023-04-28T17:12:40.798Z,0.60
2023-04-28T17:15:43.681Z,1.13
2023-04-28T17:18:46.778Z,0.52
2023-04-28T17:21:50.076Z,2.15
2023-04-28T17:24:54.125Z,1.55
2023-04-28T17:27:57.284Z,2.10
2023-04-28T17:31:03.468Z,1.52
2023-04-28T17:34:06.517Z,6.60
2023-04-28T17:37:09.495Z,2.45
2023-04-28T17:40:14.588Z,2.15
2023-04-28T17:43:17.274Z,1.42
2023-04-28T17:46:20.280Z,4.07
2023-04-28T17:49:23.275Z,2.17
2023-04-28T17:52:26.288Z,1.85
2023-04-28T17:55:30.334Z,0.70
2023-04-28T17:58:33.741Z,0.28
2023-04-28T18:01:36.640Z,1.48
2023-04-28T18:04:39.684Z,1.55
2023-04-28T18:07:42.828Z,0.85
2023-04-28T18:10:47.123Z,0.73
2023-04-28T18:13:49.973Z,0.38
2023-04-28T18:16:52.701Z,0.40
2023-04-28T18:19:56.902Z,1.20
2023-04-28T18:23:00.070Z,0.40
2023-04-28T18:26:04.347Z,1.80
2023-04-28T18:29:07.097Z,0.50
2023-04-28T18:32:12.076Z,1.17
2023-04-28T18:35:17.225Z,2.38
2023-04-28T18:38:20.351Z,0.20
2023-04-28T18:41:24.798Z,0.73
2023-04-28T18:44:28.378Z,1.20
2023-04-28T18:47:31.342Z,0.30
2023-04-28T18:50:34.473Z,0.93
2023-04-28T18:53:37.646Z,0.55
2023-04-28T18:56:41.931Z,2.53
2023-04-28T18:59:44.664Z,0.80
2023-04-28T19:02:47.559Z,1.20
2023-04-28T19:05:50.457Z,0.70
2023-04-28T19:08:53.309Z,0.55
2023-04-28T19:11:57.428Z,0.77
2023-04-28T19:15:00.466Z,0.50
2023-04-28T19:18:03.569Z,0.95
2023-04-28T19:21:06.500Z,1.17
2023-04-28T19:24:09.355Z,0.70
2023-04-28T19:27:13.456Z,0.50
2023-04-28T19:30:16.778Z,0.73
2023-04-28T19:33:19.697Z,0.88
2023-04-28T19:36:24.152Z,0.70
2023-04-28T19:39:28.758Z,1.13
2023-04-28T19:42:34.766Z,1.90
2023-04-28T19:45:37.570Z,1.23
2023-04-28T19:48:40.882Z,1.80
2023-04-28T19:51:43.707Z,2.67
2023-04-28T19:54:46.542Z,1.02
2023-04-28T19:57:52.262Z,1.08
2023-04-28T20:00:55.051Z,1.23
2023-04-28T20:03:58.159Z,1.77
2023-04-28T20:07:01.912Z,1.35
2023-04-28T20:10:05.086Z,2.17
2023-04-28T20:13:09.167Z,1.50
2023-04-28T20:16:11.994Z,0.88
2023-04-28T20:19:14.701Z,0.70
2023-04-28T20:22:17.617Z,2.15
2023-04-28T20:25:20.297Z,0.63
2023-04-28T20:28:24.572Z,1.55
2023-04-28T20:31:27.768Z,0.65
2023-04-28T20:34:30.676Z,0.70
2023-04-28T20:37:33.420Z,0.55
2023-04-28T20:40:37.092Z,0.55
2023-04-28T20:43:41.502Z,1.17
2023-04-28T20:46:44.446Z,1.58
2023-04-28T20:49:47.963Z,0.60
2023-04-28T20:52:50.739Z,1.00
2023-04-28T20:55:54.008Z,0.77
2023-04-28T20:58:58.133Z,0.45
2023-04-28T21:02:01.374Z,0.80
2023-04-28T21:05:04.339Z,0.80
2023-04-28T21:08:07.434Z,0.60
2023-04-28T21:11:12.845Z,0.80
2023-04-28T21:14:17.041Z,0.95
2023-04-28T21:17:19.910Z,0.98
2023-04-28T21:20:22.907Z,1.15
2023-04-28T21:23:25.876Z,0.50
2023-04-28T21:26:28.654Z,0.82
2023-04-28T21:29:34.463Z,1.50
2023-04-28T21:32:37.415Z,0.82
2023-04-28T21:35:40.230Z,1.13
2023-04-28T21:38:42.969Z,1.10
2023-04-28T21:41:45.723Z,1.88
2023-04-28T21:44:50.031Z,0.95
2023-04-28T21:47:52.792Z,0.98
2023-04-28T21:50:55.581Z,1.10
2023-04-28T21:53:58.399Z,1.00
2023-04-28T21:57:01.905Z,1.17
2023-04-28T22:00:10.624Z,1.73
2023-04-28T22:03:15.331Z,1.30
2023-04-28T22:06:18.739Z,1.38
2023-04-28T22:09:21.585Z,1.23
2023-04-28T22:12:24.698Z,1.42
2023-04-28T22:15:29.819Z,1.02
2023-04-28T22:18:32.821Z,1.20
2023-04-28T22:21:35.621Z,0.85
2023-04-28T22:24:38.928Z,1.30
2023-04-28T22:27:41.651Z,1.05
2023-04-28T22:30:46.316Z,1.35
2023-04-28T22:33:49.210Z,1.23
2023-04-28T22:36:52.044Z,1.63
2023-04-28T22:39:54.762Z,1.42
2023-04-28T22:42:57.421Z,1.00
2023-04-28T22:46:02.440Z,0.85
2023-04-28T22:49:05.700Z,0.88
2023-04-28T22:52:08.444Z,0.70
2023-04-28T22:55:11.857Z,0.88
2023-04-28T22:58:14.627Z,0.88
2023-04-28T23:01:18.785Z,0.75
2023-04-28T23:04:22.487Z,1.10
2023-04-28T23:07:25.635Z,1.17
2023-04-28T23:10:28.351Z,3.30
2023-04-28T23:13:31.107Z,1.25
2023-04-28T23:16:35.185Z,1.63
2023-04-28T23:19:47.351Z,1.20
2023-04-28T23:22:50.190Z,2.08
2023-04-28T23:25:52.887Z,1.45
2023-04-28T23:28:56.318Z,1.02
2023-04-28T23:32:00.644Z,1.10
2023-04-28T23:35:03.690Z,1.73
2023-04-28T23:38:06.864Z,3.05
2023-04-28T23:41:09.557Z,0.73
2023-04-28T23:44:12.252Z,2.28
2023-04-28T23:47:16.435Z,1.75
2023-04-28T23:50:19.268Z,1.15
2023-04-28T23:53:22.025Z,2.13
2023-04-28T23:56:24.687Z,1.42
2023-04-28T23:59:27.492Z,1.23
